This is the latest recevied weather packets stored in our database for station/object N2RFA-13. If no packets are shown the sender has not sent any weather packets the latest 10 day(s).
| Time | Temp. | Humidity | Pressure | Rain* | Wind** | Luminosity | Snow |
|---|---|---|---|---|---|---|---|
| 1777719655 | 7.22° C | 93% | 1013.1 hPa | 0 mm | - | - | - |
| 1777709745 | 8.33° C | 87% | 1012.4 hPa | 0 mm | - | - | - |
| 1777708838 | 8.89° C | 87% | 1012.4 hPa | 0 mm | - | - | - |
| 1777707938 | 8.89° C | 87% | 1012.5 hPa | 0 mm | - | - | - |
| 1777698023 | 9.44° C | 80% | 1013 hPa | 0 mm | - | - | - |
| 1777696220 | 10° C | 78% | 1012.9 hPa | 0 mm | - | - | - |
| 1777694421 | 10° C | 76% | 1012.8 hPa | 0 mm | - | - | - |
| 1777691715 | 10.56° C | 73% | 1012.9 hPa | 0 mm | - | - | - |
| 1777677304 | 15° C | 47% | 1011.6 hPa | 0 mm | - | - | - |
| 1777673703 | 15.56° C | 44% | 1011.3 hPa | 0 mm | - | - | - |
| 1777669200 | 16.11° C | 47% | 1011 hPa | 0 mm | - | - | - |
| 1777667459 | 16.67° C | 45% | 1011.1 hPa | 0 mm | - | - | - |
| 1777666558 | 16.67° C | 45% | 1011.2 hPa | 0 mm | - | - | - |
| 1777664756 | 16.67° C | 46% | 1011.5 hPa | 0 mm | - | - | - |
| 1777662953 | 16.67° C | 45% | 1011.7 hPa | 0 mm | - | - | - |
| 1777661153 | 16.67° C | 44% | 1012 hPa | 0 mm | - | - | - |
| 1777654844 | 17.78° C | 45% | 1012.9 hPa | 0 mm | - | - | - |
| 1777649435 | 15.56° C | 48% | 1014.1 hPa | 0 mm | - | - | - |
| 1777648533 | 15° C | 49% | 1014.3 hPa | 0 mm | - | - | - |
| 1777647629 | 13.89° C | 48% | 1014.3 hPa | 0 mm | - | - | - |
| 1777637759 | 8.33° C | 75% | 1014.7 hPa | 0 mm | - | - | - |
| 1777635057 | 5.56° C | 87% | 1014.6 hPa | 0 mm | - | - | - |
| 1777633268 | 3.33° C | 92% | 1014.5 hPa | 0 mm | - | - | - |
| 1777632354 | 2.78° C | 91% | 1014.4 hPa | 0 mm | - | - | - |
| 1777631450 | 2.78° C | 91% | 1014.2 hPa | 0 mm | - | - | - |
* Rain latest hour (hover to see other rain measurements)
** Current wind speed in m/s (hover to see current wind gust speed)